createdAt,value
2018-12-06T00:02:23.127Z,97741.99
2018-12-06T00:04:49.704Z,97751.95
2018-12-06T00:07:16.304Z,97752.47
2018-12-06T00:09:42.866Z,97739.89
2018-12-06T00:12:09.427Z,97728.10
2018-12-06T00:14:36.012Z,97728.38
2018-12-06T00:17:02.879Z,97721.55
2018-12-06T00:19:29.480Z,97710.80
2018-12-06T00:21:56.045Z,97702.42
2018-12-06T00:24:22.617Z,97703.45
2018-12-06T00:26:49.197Z,97710.52
2018-12-06T00:29:15.782Z,97710.28
2018-12-06T00:31:42.365Z,97709.48
2018-12-06T00:34:08.927Z,97719.68
2018-12-06T00:36:35.504Z,97718.09
2018-12-06T00:39:02.082Z,97717.58
2018-12-06T00:41:28.660Z,97718.66
2018-12-06T00:43:55.229Z,97713.65
2018-12-06T00:46:21.799Z,97717.58
2018-12-06T00:48:48.372Z,97719.40
2018-12-06T00:51:14.983Z,97717.58
2018-12-06T00:53:41.546Z,97728.84
2018-12-06T00:56:08.111Z,97735.11
2018-12-06T00:58:34.690Z,97747.13
2018-12-06T01:01:01.246Z,97755.27
2018-12-06T01:03:27.814Z,97762.89
2018-12-06T01:05:54.386Z,97779.63
2018-12-06T01:08:20.957Z,97778.32
2018-12-06T01:10:47.541Z,97776.22
2018-12-06T01:13:14.113Z,97770.98
2018-12-06T01:15:40.687Z,97759.42
2018-12-06T01:18:07.247Z,97761.25
2018-12-06T01:20:33.813Z,97757.60
2018-12-06T01:23:00.379Z,97754.70
2018-12-06T01:25:26.981Z,97757.31
2018-12-06T01:27:53.564Z,97758.63
2018-12-06T01:30:20.136Z,97756.01
2018-12-06T01:32:46.701Z,97757.83
2018-12-06T01:35:13.271Z,97754.13
2018-12-06T01:37:39.829Z,97757.03
2018-12-06T01:40:06.420Z,97753.91
2018-12-06T01:42:32.984Z,97765.41
2018-12-06T01:44:59.547Z,97735.41
2018-12-06T01:47:26.149Z,97761.98
2018-12-06T01:49:52.730Z,97760.73
2018-12-06T01:52:19.297Z,97776.45
2018-12-06T01:54:45.863Z,97773.55
2018-12-06T01:57:12.427Z,97768.82
2018-12-06T01:59:39.018Z,97759.88
2018-12-06T02:02:05.584Z,97756.75
2018-12-06T02:04:32.196Z,97757.27
2018-12-06T02:06:58.768Z,97753.34
2018-12-06T02:09:25.343Z,97750.72
2018-12-06T02:11:51.911Z,97748.61
2018-12-06T02:14:18.480Z,97742.86
2018-12-06T02:16:45.075Z,97752.54
2018-12-06T02:19:11.650Z,97740.44
2018-12-06T02:21:38.228Z,97734.73
2018-12-06T02:24:04.792Z,97733.90
2018-12-06T02:26:31.373Z,97732.11
2018-12-06T02:28:57.957Z,97729.48
2018-12-06T02:31:24.524Z,97729.48
2018-12-06T02:33:51.099Z,97723.94
2018-12-06T02:36:17.679Z,97726.04
2018-12-06T02:38:44.265Z,97732.11
2018-12-06T02:41:10.831Z,97726.55
2018-12-06T02:43:37.413Z,97730.80
2018-12-06T02:46:03.976Z,97723.14
2018-12-06T02:48:30.568Z,97725.05
2018-12-06T02:50:57.135Z,97721.12
2018-12-06T02:53:23.703Z,97717.39
2018-12-06T02:55:50.278Z,97716.08
2018-12-06T02:58:16.863Z,97710.84
2018-12-06T03:00:43.567Z,97705.61
2018-12-06T03:03:10.144Z,97697.98
2018-12-06T03:05:36.715Z,97694.84
2018-12-06T03:08:03.293Z,97693.54
2018-12-06T03:10:29.865Z,97689.10
2018-12-06T03:12:56.442Z,97679.14
2018-12-06T03:15:23.017Z,97685.17
2018-12-06T03:17:49.591Z,97675.72
2018-12-06T03:20:16.157Z,97646.41
2018-12-06T03:22:42.756Z,97626.77
2018-12-06T03:25:09.329Z,97598.25
2018-12-06T03:27:35.887Z,97583.05
2018-12-06T03:30:02.476Z,97569.88
2018-12-06T03:32:29.149Z,97567.58
2018-12-06T03:34:55.733Z,97606.34
2018-12-06T03:37:22.299Z,97621.73
2018-12-06T03:39:48.900Z,97636.14
2018-12-06T03:42:15.464Z,97650.05
2018-12-06T03:44:42.034Z,97669.18
2018-12-06T03:47:08.596Z,97678.03
2018-12-06T03:49:35.163Z,97686.72
2018-12-06T03:52:01.742Z,97690.84
2018-12-06T03:54:28.309Z,97693.54
2018-12-06T03:56:54.910Z,97682.03
2018-12-06T03:59:21.476Z,97696.67
2018-12-06T04:01:48.034Z,97698.49
2018-12-06T04:04:14.590Z,97698.19
2018-12-06T04:06:41.160Z,97693.73
2018-12-06T04:09:07.737Z,97685.61
2018-12-06T04:11:34.326Z,97682.19
2018-12-06T04:14:00.921Z,97680.88
2018-12-06T04:16:27.498Z,97684.30
2018-12-06T04:18:54.181Z,97676.44
2018-12-06T04:21:20.772Z,97676.95
2018-12-06T04:23:50.376Z,97673.54
2018-12-06T04:26:17.008Z,97677.55
2018-12-06T04:28:43.584Z,97670.17
2018-12-06T04:31:10.169Z,97671.48
2018-12-06T04:33:36.879Z,97665.91
2018-12-06T04:36:03.470Z,97668.38
2018-12-06T04:38:30.068Z,97664.14
2018-12-06T04:40:56.784Z,97667.28
2018-12-06T04:43:23.367Z,97668.07
2018-12-06T04:45:50.120Z,97663.58
2018-12-06T04:48:21.928Z,97669.09
2018-12-06T04:50:45.568Z,97672.52
2018-12-06T04:53:12.152Z,97673.31
2018-12-06T04:55:38.909Z,97671.72
2018-12-06T04:58:05.634Z,97674.62
2018-12-06T05:00:32.246Z,97676.44
2018-12-06T05:02:58.819Z,97681.39
2018-12-06T05:05:25.391Z,97683.22
2018-12-06T05:07:51.960Z,97689.25
2018-12-06T05:10:18.536Z,97686.40
2018-12-06T05:12:45.107Z,97686.40
2018-12-06T05:15:11.683Z,97683.50
2018-12-06T05:17:38.378Z,97687.94
2018-12-06T05:20:04.948Z,97681.39
2018-12-06T05:22:31.520Z,97676.16
2018-12-06T05:24:58.098Z,97679.80
2018-12-06T05:27:24.669Z,97669.33
2018-12-06T05:29:56.797Z,97673.03
2018-12-06T05:32:23.392Z,97670.41
2018-12-06T05:34:49.981Z,97668.30
2018-12-06T05:37:16.546Z,97664.89
2018-12-06T05:39:43.120Z,97650.54
2018-12-06T05:42:09.692Z,97659.14
2018-12-06T05:44:36.279Z,97659.14
2018-12-06T05:47:02.848Z,97664.09
2018-12-06T05:49:29.452Z,97667.00
2018-12-06T05:51:56.023Z,97662.27
2018-12-06T05:54:22.597Z,97663.81
2018-12-06T05:56:49.203Z,97674.56
2018-12-06T05:59:15.776Z,97673.03
2018-12-06T06:01:42.346Z,97674.05
2018-12-06T06:04:08.919Z,97671.20
2018-12-06T06:06:35.486Z,97675.36
2018-12-06T06:09:02.089Z,97680.37
2018-12-06T06:11:28.660Z,97685.89
2018-12-06T06:13:55.240Z,97680.31
2018-12-06T06:16:21.803Z,97679.80
2018-12-06T06:18:48.377Z,97681.63
2018-12-06T06:21:14.976Z,97688.17
2018-12-06T06:23:41.541Z,97684.76
2018-12-06T06:26:08.135Z,97692.89
2018-12-06T06:28:34.712Z,97706.03
2018-12-06T06:31:01.344Z,97701.77
2018-12-06T06:33:28.012Z,97705.70
2018-12-06T06:35:54.597Z,97711.73
2018-12-06T06:38:21.167Z,97714.35
2018-12-06T06:40:47.741Z,97710.70
2018-12-06T06:43:14.325Z,97714.87
2018-12-06T06:45:40.933Z,97706.22
2018-12-06T06:48:07.510Z,97702.57
2018-12-06T06:50:34.097Z,97699.16
2018-12-06T06:53:00.676Z,97690.00
2018-12-06T06:55:27.257Z,97688.12
2018-12-06T06:57:53.850Z,97681.86
2018-12-06T07:00:20.418Z,97694.72
2018-12-06T07:02:46.979Z,97690.56
2018-12-06T07:05:13.562Z,97690.05
2018-12-06T07:07:40.146Z,97690.64
2018-12-06T07:10:06.709Z,97700.37
2018-12-06T07:12:33.298Z,97697.55
2018-12-06T07:14:59.869Z,97694.14
2018-12-06T07:17:26.439Z,97691.72
2018-12-06T07:19:53.005Z,97694.56
2018-12-06T07:22:19.575Z,97690.00
2018-12-06T07:24:46.143Z,97697.66
2018-12-06T07:27:12.727Z,97694.84
2018-12-06T07:32:12.351Z,97709.34
2018-12-06T07:34:38.939Z,97709.94
2018-12-06T07:37:05.499Z,97712.59
2018-12-06T07:39:32.073Z,97717.09
2018-12-06T07:41:58.644Z,97714.50
2018-12-06T07:44:25.220Z,97711.28
2018-12-06T07:46:51.787Z,97713.27
2018-12-06T07:49:18.356Z,97728.52
2018-12-06T07:51:44.948Z,97734.75
2018-12-06T07:54:11.532Z,97731.70
2018-12-06T07:56:38.111Z,97743.14
2018-12-06T07:59:04.675Z,97738.14
2018-12-06T08:01:31.249Z,97737.28
2018-12-06T08:03:57.828Z,97741.33
2018-12-06T08:06:24.393Z,97745.87
2018-12-06T08:08:50.958Z,97747.06
2018-12-06T08:11:17.715Z,97747.44
2018-12-06T08:13:44.302Z,97745.17
2018-12-06T08:16:10.868Z,97743.64
2018-12-06T08:18:37.439Z,97745.33
2018-12-06T08:21:04.007Z,97757.66
2018-12-06T08:23:31.634Z,97771.31
2018-12-06T08:25:58.200Z,97774.50
2018-12-06T08:28:24.906Z,97777.69
2018-12-06T08:30:51.499Z,97780.88
2018-12-06T08:33:18.076Z,97777.23
2018-12-06T08:35:44.647Z,97781.25
2018-12-06T08:38:12.324Z,97784.16
2018-12-06T08:40:39.220Z,97779.50
2018-12-06T08:43:05.790Z,97780.58
2018-12-06T08:45:32.351Z,97785.30
2018-12-06T08:47:58.916Z,97783.26
2018-12-06T08:50:25.482Z,97782.75
2018-12-06T08:52:52.068Z,97780.92
2018-12-06T08:55:18.644Z,97788.27
2018-12-06T08:57:45.213Z,97790.66
2018-12-06T09:00:11.776Z,97788.55
2018-12-06T09:02:38.347Z,97789.63
2018-12-06T09:05:04.937Z,97793.88
2018-12-06T09:07:31.502Z,97790.23
2018-12-06T09:09:58.073Z,97788.41
2018-12-06T09:12:24.649Z,97794.16
2018-12-06T09:14:51.223Z,97798.09
2018-12-06T09:17:17.791Z,97803.83
2018-12-06T09:19:44.357Z,97797.06
2018-12-06T09:22:10.918Z,97805.42
2018-12-06T09:24:37.478Z,97810.94
2018-12-06T09:27:04.056Z,97810.43
2018-12-06T09:29:30.630Z,97814.64
2018-12-06T09:31:57.203Z,97817.77
2018-12-06T09:34:23.785Z,97817.77
2018-12-06T09:36:50.359Z,97814.64
2018-12-06T09:39:16.927Z,97816.75
2018-12-06T09:41:43.530Z,97818.85
2018-12-06T09:44:10.119Z,97818.85
2018-12-06T09:46:36.686Z,97816.75
2018-12-06T09:49:03.260Z,97820.38
2018-12-06T09:51:29.828Z,97822.77
2018-12-06T09:53:56.407Z,97817.03
2018-12-06T09:56:22.972Z,97813.91
2018-12-06T09:58:49.543Z,97811.86
2018-12-06T10:01:16.141Z,97814.13
2018-12-06T10:03:42.707Z,97817.03
2018-12-06T10:06:09.284Z,97820.44
2018-12-06T10:08:35.872Z,97826.47
2018-12-06T10:11:02.450Z,97832.80
2018-12-06T10:13:29.021Z,97829.37
2018-12-06T10:15:55.593Z,97840.64
2018-12-06T10:18:22.201Z,97832.50
2018-12-06T10:20:48.771Z,97834.39
2018-12-06T10:23:15.353Z,97840.36
2018-12-06T10:25:41.928Z,97846.90
2018-12-06T10:28:08.496Z,97839.84
2018-12-06T10:30:35.059Z,97831.48
2018-12-06T10:33:01.653Z,97828.07
2018-12-06T10:35:28.223Z,97828.87
2018-12-06T10:37:54.796Z,97832.28
2018-12-06T10:40:21.390Z,97838.53
2018-12-06T10:42:47.972Z,97832.80
2018-12-06T10:45:14.538Z,97828.36
2018-12-06T10:47:41.129Z,97828.87
2018-12-06T10:50:07.706Z,97830.46
2018-12-06T10:52:34.272Z,97827.05
2018-12-06T10:55:00.843Z,97827.05
2018-12-06T10:57:27.420Z,97823.41
2018-12-06T10:59:53.991Z,97829.44
2018-12-06T11:02:26.310Z,97827.63
2018-12-06T11:04:52.900Z,97831.03
2018-12-06T11:07:23.309Z,97836.27
2018-12-06T11:09:49.876Z,97842.02
2018-12-06T11:12:16.443Z,97834.67
2018-12-06T11:14:43.020Z,97845.42
2018-12-06T11:17:09.606Z,97845.72
2018-12-06T11:19:36.167Z,97844.63
2018-12-06T11:22:02.776Z,97842.81
2018-12-06T11:24:29.338Z,97832.85
2018-12-06T11:27:25.959Z,97832.85
2018-12-06T11:29:52.549Z,97833.36
2018-12-06T11:32:19.144Z,97827.63
2018-12-06T11:34:45.748Z,97819.48
2018-12-06T11:37:12.323Z,97821.36
2018-12-06T11:39:38.930Z,97805.95
2018-12-06T11:42:05.520Z,97804.95
2018-12-06T11:44:32.127Z,97793.18
2018-12-06T11:46:58.753Z,97788.45
2018-12-06T11:49:25.382Z,97787.44
2018-12-06T11:51:52.012Z,97789.03
2018-12-06T11:54:18.604Z,97788.73
2018-12-06T11:56:45.199Z,97780.38
2018-12-06T11:59:11.788Z,97776.45
2018-12-06T12:01:38.392Z,97764.73
2018-12-06T12:04:04.995Z,97772.53
2018-12-06T12:06:31.627Z,97772.53
2018-12-06T12:08:58.257Z,97768.83
2018-12-06T12:11:24.840Z,97768.31
2018-12-06T12:13:51.526Z,97768.60
2018-12-06T12:16:18.145Z,97775.14
2018-12-06T12:18:44.747Z,97758.93
2018-12-06T12:21:11.439Z,97764.08
2018-12-06T12:23:38.061Z,97768.60
2018-12-06T12:26:04.663Z,97762.28
2018-12-06T12:28:31.544Z,97767.01
2018-12-06T12:30:58.190Z,97765.38
2018-12-06T12:33:25.116Z,97769.82
2018-12-06T12:35:51.756Z,97779.78
2018-12-06T12:38:18.356Z,97782.70
2018-12-06T12:40:45.056Z,97782.20
2018-12-06T12:43:11.797Z,97778.47
2018-12-06T12:45:38.415Z,97780.61
2018-12-06T12:48:05.037Z,97779.78
2018-12-06T12:50:31.671Z,97775.85
2018-12-06T12:52:58.350Z,97774.55
2018-12-06T12:55:24.934Z,97782.91
2018-12-06T12:57:51.626Z,97787.15
2018-12-06T13:00:18.225Z,97777.48
2018-12-06T13:02:44.903Z,97775.05
2018-12-06T13:05:11.488Z,97778.47
2018-12-06T13:07:38.119Z,97769.82
2018-12-06T13:10:04.729Z,97777.16
2018-12-06T13:12:31.352Z,97776.36
2018-12-06T13:14:57.937Z,97776.36
2018-12-06T13:17:24.629Z,97773.23
2018-12-06T13:19:51.223Z,97775.05
2018-12-06T13:22:17.843Z,97772.75
2018-12-06T13:24:44.476Z,97768.97
2018-12-06T13:27:11.096Z,97778.47
2018-12-06T13:29:37.677Z,97778.19
2018-12-06T13:32:04.391Z,97783.00
2018-12-06T13:34:31.001Z,97787.72
2018-12-06T13:36:57.655Z,97783.22
2018-12-06T13:39:24.319Z,97785.61
2018-12-06T13:41:50.946Z,97785.52
2018-12-06T13:44:17.689Z,97785.52
2018-12-06T13:46:44.336Z,97778.98
2018-12-06T13:49:11.087Z,97777.98
2018-12-06T13:51:37.716Z,97779.30
2018-12-06T13:54:04.328Z,97778.27
2018-12-06T13:56:30.900Z,97784.02
2018-12-06T13:58:57.551Z,97783.70
2018-12-06T14:01:24.318Z,97781.91
2018-12-06T14:03:51.103Z,97787.62
2018-12-06T14:06:17.703Z,97781.91
2018-12-06T14:08:44.428Z,97789.25
2018-12-06T14:11:11.035Z,97787.15
2018-12-06T14:13:37.647Z,97795.00
2018-12-06T14:16:10.228Z,97792.06
2018-12-06T14:18:33.081Z,97795.00
2018-12-06T14:20:59.654Z,97795.48
2018-12-06T14:23:26.367Z,97797.62
2018-12-06T14:25:52.980Z,97798.61
2018-12-06T14:28:19.605Z,97798.41
2018-12-06T14:30:46.222Z,97790.05
2018-12-06T14:33:12.886Z,97788.45
2018-12-06T14:35:39.690Z,97795.80
2018-12-06T14:38:06.406Z,97798.92
2018-12-06T14:40:33.304Z,97788.14
2018-12-06T14:43:00.760Z,97798.41
2018-12-06T14:45:27.588Z,97797.11
2018-12-06T14:47:54.235Z,97804.73
2018-12-06T14:50:20.829Z,97798.19
2018-12-06T14:52:47.472Z,97801.31
2018-12-06T14:55:14.184Z,97802.34
2018-12-06T14:57:40.804Z,97801.96
2018-12-06T15:00:07.442Z,97806.27
2018-12-06T15:02:34.018Z,97814.63
2018-12-06T15:05:00.623Z,97825.89
2018-12-06T15:07:27.262Z,97824.58
2018-12-06T15:09:54.013Z,97834.25
2018-12-06T15:12:21.373Z,97836.05
2018-12-06T15:14:48.022Z,97839.48
2018-12-06T15:17:14.635Z,97838.18
2018-12-06T15:19:41.247Z,97837.86
2018-12-06T15:22:07.979Z,97832.62
2018-12-06T15:24:34.565Z,97836.87
2018-12-06T15:27:01.219Z,97842.91
2018-12-06T15:29:27.849Z,97839.97
2018-12-06T15:31:54.486Z,97839.48
2018-12-06T15:34:21.095Z,97843.19
2018-12-06T15:36:47.670Z,97835.05
2018-12-06T15:39:14.300Z,97839.97
2018-12-06T15:41:40.903Z,97843.41
2018-12-06T15:44:07.474Z,97834.45
2018-12-06T15:46:34.111Z,97832.95
2018-12-06T15:49:00.679Z,97836.87
2018-12-06T15:51:27.353Z,97834.25
2018-12-06T15:53:53.935Z,97835.56
2018-12-06T15:56:20.562Z,97829.02
2018-12-06T15:58:47.237Z,97841.08
2018-12-06T16:01:13.845Z,97841.27
2018-12-06T16:03:40.475Z,97840.80
2018-12-06T16:06:07.106Z,97847.11
2018-12-06T16:08:33.745Z,97841.08
2018-12-06T16:11:00.357Z,97842.39
2018-12-06T16:13:27.002Z,97838.47
2018-12-06T16:15:53.606Z,97829.50
2018-12-06T16:18:20.488Z,97825.38
2018-12-06T16:20:47.121Z,97823.27
2018-12-06T16:23:13.725Z,97821.45
2018-12-06T16:25:40.325Z,97830.33
2018-12-06T16:28:06.970Z,97835.56
2018-12-06T16:30:33.640Z,97846.03
2018-12-06T16:33:00.259Z,97852.06
2018-12-06T16:35:26.879Z,97858.09
2018-12-06T16:37:53.528Z,97857.58
2018-12-06T16:40:20.161Z,97861.22
2018-12-06T16:42:46.806Z,97859.69
2018-12-06T16:45:13.432Z,97860.71
2018-12-06T16:47:40.031Z,97865.14
2018-12-06T16:50:06.608Z,97859.91
2018-12-06T16:52:33.248Z,97864.35
2018-12-06T16:54:59.850Z,97851.27
2018-12-06T16:57:26.474Z,97857.81
2018-12-06T16:59:53.061Z,97858.89
2018-12-06T17:02:19.670Z,97859.91
2018-12-06T17:04:46.265Z,97858.60
2018-12-06T17:07:12.851Z,97856.98
2018-12-06T17:09:39.445Z,97828.18
2018-12-06T17:12:06.082Z,97859.11
2018-12-06T17:14:32.683Z,97862.02
2018-12-06T17:16:59.292Z,97861.13
2018-12-06T17:19:25.909Z,97864.83
2018-12-06T17:21:52.540Z,97866.65
2018-12-06T17:24:19.201Z,97868.75
2018-12-06T17:26:45.836Z,97868.27
2018-12-06T17:29:12.471Z,97872.48
2018-12-06T17:31:39.105Z,97871.17
2018-12-06T17:34:05.688Z,97872.48
2018-12-06T17:36:32.296Z,97876.70
2018-12-06T17:38:58.913Z,97879.89
2018-12-06T17:41:25.558Z,97880.97
2018-12-06T17:43:52.159Z,97879.38
2018-12-06T17:46:18.802Z,97879.55
2018-12-06T17:48:45.448Z,97886.14
2018-12-06T17:51:12.041Z,97896.33
2018-12-06T17:53:38.666Z,97891.89
2018-12-06T17:56:05.296Z,97895.81
2018-12-06T17:58:31.905Z,97901.56
2018-12-06T18:00:58.533Z,97896.33
2018-12-06T18:03:25.133Z,97896.33
2018-12-06T18:05:51.759Z,97902.88
2018-12-06T18:08:18.362Z,97908.11
2018-12-06T18:10:45.008Z,97903.09
2018-12-06T18:13:11.572Z,97906.00
2018-12-06T18:15:38.305Z,97904.41
2018-12-06T18:18:04.944Z,97911.45
2018-12-06T18:20:31.569Z,97916.98
2018-12-06T18:22:58.168Z,97912.25
2018-12-06T18:25:24.869Z,97909.83
2018-12-06T18:27:51.513Z,97905.91
2018-12-06T18:30:18.143Z,97899.17
2018-12-06T18:32:44.870Z,97898.05
2018-12-06T18:35:11.502Z,97896.23
2018-12-06T18:37:38.082Z,97905.39
2018-12-06T18:40:04.712Z,97905.91
2018-12-06T18:42:31.325Z,97909.83
2018-12-06T18:44:57.946Z,97901.98
2018-12-06T18:47:24.591Z,97905.71
2018-12-06T18:49:51.164Z,97891.73
2018-12-06T18:52:17.841Z,97897.06
2018-12-06T18:54:44.402Z,97899.36
2018-12-06T18:57:10.988Z,97895.44
2018-12-06T18:59:37.641Z,97900.16
2018-12-06T19:02:04.432Z,97901.69
2018-12-06T19:04:31.035Z,97901.98
2018-12-06T19:06:57.634Z,97906.41
2018-12-06T19:09:24.191Z,97896.97
2018-12-06T19:11:50.747Z,97905.62
2018-12-06T19:14:21.884Z,97901.41
2018-12-06T19:16:45.992Z,97895.95
2018-12-06T19:19:12.630Z,97897.26
2018-12-06T19:21:39.232Z,97900.38
2018-12-06T19:24:05.848Z,97902.20
2018-12-06T19:26:32.475Z,97895.38
2018-12-06T19:28:59.097Z,97901.41
2018-12-06T19:31:25.687Z,97890.59
2018-12-06T19:33:52.300Z,97894.64
2018-12-06T19:36:18.888Z,97895.38
2018-12-06T19:38:45.468Z,97891.73
2018-12-06T19:41:12.043Z,97891.31
2018-12-06T19:43:38.596Z,97906.00
2018-12-06T19:46:05.222Z,97886.95
2018-12-06T19:48:31.783Z,97889.05
2018-12-06T19:50:58.347Z,97884.61
2018-12-06T19:53:24.905Z,97888.03
2018-12-06T19:55:51.451Z,97881.42
2018-12-06T19:58:18.040Z,97879.89
2018-12-06T20:00:44.639Z,97876.47
2018-12-06T20:03:11.203Z,97881.83
2018-12-06T20:05:37.774Z,97884.16
2018-12-06T20:08:04.379Z,97886.50
2018-12-06T20:10:30.998Z,97888.54
2018-12-06T20:12:57.561Z,97883.53
2018-12-06T20:15:24.156Z,97888.54
2018-12-06T20:17:50.731Z,97894.51
2018-12-06T20:20:23.591Z,97896.39
2018-12-06T20:22:45.946Z,97892.41
2018-12-06T20:25:12.584Z,97893.20
2018-12-06T20:27:39.181Z,97887.17
2018-12-06T20:30:05.812Z,97884.77
2018-12-06T20:32:32.410Z,97878.42
2018-12-06T20:34:59.048Z,97881.36
2018-12-06T20:37:25.640Z,97869.58
2018-12-06T20:39:52.237Z,97868.75
2018-12-06T20:42:18.812Z,97865.85
2018-12-06T20:44:45.400Z,97863.52
2018-12-06T20:47:14.037Z,97862.81
2018-12-06T20:49:40.624Z,97861.41
2018-12-06T20:52:07.218Z,97859.59
2018-12-06T20:54:33.836Z,97862.95
2018-12-06T20:57:00.418Z,97852.77
2018-12-06T20:59:27.052Z,97860.62
2018-12-06T21:01:54.904Z,97861.92
2018-12-06T21:04:21.712Z,97855.89
2018-12-06T21:06:48.324Z,97858.80
2018-12-06T21:09:14.932Z,97855.09
2018-12-06T21:11:41.561Z,97855.89
2018-12-06T21:14:08.161Z,97850.66
2018-12-06T21:16:34.782Z,97840.20
2018-12-06T21:19:01.399Z,97844.63
2018-12-06T21:21:28.004Z,97840.70
2018-12-06T21:23:54.623Z,97843.83
2018-12-06T21:26:21.225Z,97835.75
2018-12-06T21:28:47.883Z,97839.91
2018-12-06T21:31:14.490Z,97843.32
2018-12-06T21:33:41.115Z,97843.03
2018-12-06T21:36:07.728Z,97837.80
2018-12-06T21:38:34.306Z,97836.27
2018-12-06T21:41:00.970Z,97833.36
2018-12-06T21:43:27.544Z,97832.85
2018-12-06T21:45:54.153Z,97839.39
2018-12-06T21:48:20.751Z,97846.45
2018-12-06T21:50:47.369Z,97840.20
2018-12-06T21:53:13.983Z,97836.49
2018-12-06T21:55:40.576Z,97835.19
2018-12-06T21:58:07.200Z,97840.13
2018-12-06T22:00:33.831Z,97844.86
2018-12-06T22:03:00.392Z,97847.70
2018-12-06T22:05:26.999Z,97845.37
2018-12-06T22:07:53.630Z,97846.67
2018-12-06T22:10:20.254Z,97844.05
2018-12-06T22:12:46.835Z,97838.83
2018-12-06T22:15:13.461Z,97848.27
2018-12-06T22:17:40.048Z,97849.80
2018-12-06T22:20:06.650Z,97842.97
2018-12-06T22:22:33.261Z,97840.64
2018-12-06T22:24:59.868Z,97841.95
2018-12-06T22:27:26.496Z,97841.66
2018-12-06T22:29:53.101Z,97842.97
2018-12-06T22:32:19.733Z,97835.63
2018-12-06T22:34:46.344Z,97835.13
2018-12-06T22:37:12.943Z,97829.66
2018-12-06T22:39:39.555Z,97830.69
2018-12-06T22:42:06.174Z,97837.73
2018-12-06T22:44:32.802Z,97828.58
2018-12-06T22:46:59.396Z,97836.49
2018-12-06T22:49:26.005Z,97837.23
2018-12-06T22:51:52.629Z,97846.67
2018-12-06T22:54:19.253Z,97839.05
2018-12-06T22:56:45.895Z,97834.84
2018-12-06T22:59:12.485Z,97833.02
2018-12-06T23:01:40.279Z,97830.69
2018-12-06T23:04:06.893Z,97829.09
2018-12-06T23:06:33.481Z,97825.68
2018-12-06T23:09:00.115Z,97818.05
2018-12-06T23:11:26.753Z,97811.29
2018-12-06T23:13:53.358Z,97817.83
2018-12-06T23:16:20.011Z,97813.39
2018-12-06T23:18:46.604Z,97813.11
2018-12-06T23:21:13.220Z,97811.29
2018-12-06T23:23:39.841Z,97808.16
2018-12-06T23:26:06.470Z,97795.81
2018-12-06T23:28:33.052Z,97801.62
2018-12-06T23:30:59.677Z,97791.89
2018-12-06T23:33:31.963Z,97793.48
2018-12-06T23:35:54.976Z,97785.41
2018-12-06T23:38:21.574Z,97788.25
2018-12-06T23:40:48.190Z,97776.70
2018-12-06T23:43:14.788Z,97780.40
2018-12-06T23:45:41.445Z,97779.89
2018-12-06T23:48:08.039Z,97784.32
2018-12-06T23:50:34.765Z,97787.17
2018-12-06T23:53:01.356Z,97785.63
2018-12-06T23:55:27.954Z,97783.53
2018-12-06T23:57:54.553Z,97784.32
